sensor_id;sensor_type;location;lat;lon;timestamp;P1;durP1;ratioP1;P2;durP2;ratioP2
19929;SDS011;10127;47.780;9.606;2023-04-21T00:01:50;3.70;;;3.07;;
19929;SDS011;10127;47.780;9.606;2023-04-21T00:04:17;4.60;;;2.97;;
19929;SDS011;10127;47.780;9.606;2023-04-21T00:06:43;4.00;;;2.90;;
19929;SDS011;10127;47.780;9.606;2023-04-21T00:09:09;4.73;;;3.27;;
19929;SDS011;10127;47.780;9.606;2023-04-21T00:11:35;3.77;;;2.93;;
19929;SDS011;10127;47.780;9.606;2023-04-21T00:14:01;3.10;;;2.77;;
19929;SDS011;10127;47.780;9.606;2023-04-21T00:16:26;5.63;;;3.27;;
19929;SDS011;10127;47.780;9.606;2023-04-21T00:18:52;5.63;;;3.10;;
19929;SDS011;10127;47.780;9.606;2023-04-21T00:21:18;5.07;;;3.80;;
19929;SDS011;10127;47.780;9.606;2023-04-21T00:23:43;5.53;;;3.57;;
19929;SDS011;10127;47.780;9.606;2023-04-21T00:26:11;5.10;;;4.23;;
19929;SDS011;10127;47.780;9.606;2023-04-21T00:28:37;4.80;;;4.03;;
19929;SDS011;10127;47.780;9.606;2023-04-21T00:31:02;6.13;;;4.80;;
19929;SDS011;10127;47.780;9.606;2023-04-21T00:33:28;8.60;;;4.53;;
19929;SDS011;10127;47.780;9.606;2023-04-21T00:35:53;7.53;;;4.80;;
19929;SDS011;10127;47.780;9.606;2023-04-21T00:38:20;5.43;;;4.67;;
19929;SDS011;10127;47.780;9.606;2023-04-21T00:40:46;7.50;;;4.80;;
19929;SDS011;10127;47.780;9.606;2023-04-21T00:43:12;8.30;;;5.53;;
19929;SDS011;10127;47.780;9.606;2023-04-21T00:45:37;5.53;;;4.07;;
19929;SDS011;10127;47.780;9.606;2023-04-21T00:48:03;6.87;;;4.60;;
19929;SDS011;10127;47.780;9.606;2023-04-21T00:50:28;7.70;;;4.87;;
19929;SDS011;10127;47.780;9.606;2023-04-21T00:52:54;5.37;;;4.47;;
19929;SDS011;10127;47.780;9.606;2023-04-21T00:55:20;7.57;;;5.07;;
19929;SDS011;10127;47.780;9.606;2023-04-21T00:57:46;5.70;;;4.70;;
19929;SDS011;10127;47.780;9.606;2023-04-21T01:00:13;5.27;;;4.53;;
19929;SDS011;10127;47.780;9.606;2023-04-21T01:02:46;5.53;;;4.50;;
19929;SDS011;10127;47.780;9.606;2023-04-21T01:05:12;6.80;;;4.77;;
19929;SDS011;10127;47.780;9.606;2023-04-21T01:07:40;5.67;;;4.60;;
19929;SDS011;10127;47.780;9.606;2023-04-21T01:10:13;7.00;;;5.00;;
19929;SDS011;10127;47.780;9.606;2023-04-21T01:12:45;7.03;;;4.77;;
19929;SDS011;10127;47.780;9.606;2023-04-21T01:15:12;6.80;;;4.53;;
19929;SDS011;10127;47.780;9.606;2023-04-21T01:17:39;6.60;;;4.50;;
19929;SDS011;10127;47.780;9.606;2023-04-21T01:20:10;5.77;;;4.50;;
19929;SDS011;10127;47.780;9.606;2023-04-21T01:22:38;6.60;;;5.07;;
19929;SDS011;10127;47.780;9.606;2023-04-21T01:25:05;5.43;;;4.93;;
19929;SDS011;10127;47.780;9.606;2023-04-21T01:27:32;5.57;;;4.03;;
19929;SDS011;10127;47.780;9.606;2023-04-21T01:29:58;5.40;;;4.60;;
19929;SDS011;10127;47.780;9.606;2023-04-21T01:32:24;6.43;;;5.00;;
19929;SDS011;10127;47.780;9.606;2023-04-21T01:35:00;6.00;;;4.63;;
19929;SDS011;10127;47.780;9.606;2023-04-21T01:37:26;6.43;;;5.10;;
19929;SDS011;10127;47.780;9.606;2023-04-21T01:39:55;5.10;;;4.43;;
19929;SDS011;10127;47.780;9.606;2023-04-21T01:42:23;5.03;;;4.17;;
19929;SDS011;10127;47.780;9.606;2023-04-21T01:44:51;5.53;;;4.67;;
19929;SDS011;10127;47.780;9.606;2023-04-21T01:47:20;7.27;;;4.90;;
19929;SDS011;10127;47.780;9.606;2023-04-21T01:49:47;5.60;;;4.47;;
19929;SDS011;10127;47.780;9.606;2023-04-21T01:52:12;5.57;;;4.40;;
19929;SDS011;10127;47.780;9.606;2023-04-21T01:54:38;5.23;;;4.07;;
19929;SDS011;10127;47.780;9.606;2023-04-21T01:57:04;5.47;;;4.20;;
19929;SDS011;10127;47.780;9.606;2023-04-21T01:59:30;5.67;;;4.27;;
19929;SDS011;10127;47.780;9.606;2023-04-21T02:01:56;6.60;;;4.93;;
19929;SDS011;10127;47.780;9.606;2023-04-21T02:04:21;5.57;;;4.60;;
19929;SDS011;10127;47.780;9.606;2023-04-21T02:06:47;6.33;;;5.23;;
19929;SDS011;10127;47.780;9.606;2023-04-21T02:09:12;5.23;;;4.50;;
19929;SDS011;10127;47.780;9.606;2023-04-21T02:11:38;6.37;;;5.00;;
19929;SDS011;10127;47.780;9.606;2023-04-21T02:14:03;7.30;;;5.33;;
19929;SDS011;10127;47.780;9.606;2023-04-21T02:16:29;6.83;;;5.40;;
19929;SDS011;10127;47.780;9.606;2023-04-21T02:18:55;6.63;;;5.03;;
19929;SDS011;10127;47.780;9.606;2023-04-21T02:21:21;7.27;;;5.50;;
19929;SDS011;10127;47.780;9.606;2023-04-21T02:23:51;6.30;;;5.17;;
19929;SDS011;10127;47.780;9.606;2023-04-21T02:26:17;9.50;;;5.20;;
19929;SDS011;10127;47.780;9.606;2023-04-21T02:28:43;6.03;;;5.20;;
19929;SDS011;10127;47.780;9.606;2023-04-21T02:31:09;7.80;;;5.47;;
19929;SDS011;10127;47.780;9.606;2023-04-21T02:33:34;6.57;;;4.90;;
19929;SDS011;10127;47.780;9.606;2023-04-21T02:36:00;6.63;;;4.87;;
19929;SDS011;10127;47.780;9.606;2023-04-21T02:38:26;6.77;;;5.60;;
19929;SDS011;10127;47.780;9.606;2023-04-21T02:40:52;5.30;;;4.40;;
19929;SDS011;10127;47.780;9.606;2023-04-21T02:43:17;6.53;;;4.77;;
19929;SDS011;10127;47.780;9.606;2023-04-21T02:45:43;6.13;;;5.07;;
19929;SDS011;10127;47.780;9.606;2023-04-21T02:48:08;5.67;;;5.07;;
19929;SDS011;10127;47.780;9.606;2023-04-21T03:11:08;6.20;;;4.90;;
19929;SDS011;10127;47.780;9.606;2023-04-21T03:13:33;9.93;;;5.50;;
19929;SDS011;10127;47.780;9.606;2023-04-21T03:19:21;8.03;;;6.00;;
19929;SDS011;10127;47.780;9.606;2023-04-21T03:21:47;7.77;;;6.67;;
19929;SDS011;10127;47.780;9.606;2023-04-21T03:24:12;8.60;;;6.93;;
19929;SDS011;10127;47.780;9.606;2023-04-21T03:26:38;10.23;;;7.73;;
19929;SDS011;10127;47.780;9.606;2023-04-21T03:29:05;8.93;;;7.13;;
19929;SDS011;10127;47.780;9.606;2023-04-21T03:31:30;9.47;;;7.70;;
19929;SDS011;10127;47.780;9.606;2023-04-21T03:33:56;10.07;;;7.83;;
19929;SDS011;10127;47.780;9.606;2023-04-21T03:36:21;9.00;;;7.80;;
19929;SDS011;10127;47.780;9.606;2023-04-21T03:38:47;9.33;;;7.80;;
19929;SDS011;10127;47.780;9.606;2023-04-21T03:41:13;11.57;;;7.70;;
19929;SDS011;10127;47.780;9.606;2023-04-21T03:43:38;9.20;;;7.80;;
19929;SDS011;10127;47.780;9.606;2023-04-21T03:46:04;9.43;;;7.63;;
19929;SDS011;10127;47.780;9.606;2023-04-21T03:48:29;9.57;;;7.53;;
19929;SDS011;10127;47.780;9.606;2023-04-21T03:50:56;9.80;;;7.77;;
19929;SDS011;10127;47.780;9.606;2023-04-21T03:53:21;9.00;;;7.90;;
19929;SDS011;10127;47.780;9.606;2023-04-21T03:55:48;10.70;;;8.27;;
19929;SDS011;10127;47.780;9.606;2023-04-21T03:58:15;10.20;;;7.43;;
19929;SDS011;10127;47.780;9.606;2023-04-21T04:00:40;12.90;;;8.10;;
19929;SDS011;10127;47.780;9.606;2023-04-21T04:03:06;13.00;;;7.83;;
19929;SDS011;10127;47.780;9.606;2023-04-21T04:05:34;11.27;;;8.23;;
19929;SDS011;10127;47.780;9.606;2023-04-21T04:08:00;10.67;;;8.30;;
19929;SDS011;10127;47.780;9.606;2023-04-21T04:10:25;11.60;;;7.80;;
19929;SDS011;10127;47.780;9.606;2023-04-21T04:12:51;11.90;;;8.13;;
19929;SDS011;10127;47.780;9.606;2023-04-21T04:15:17;10.87;;;8.90;;
19929;SDS011;10127;47.780;9.606;2023-04-21T04:17:42;9.67;;;7.93;;
19929;SDS011;10127;47.780;9.606;2023-04-21T04:20:08;9.50;;;8.00;;
19929;SDS011;10127;47.780;9.606;2023-04-21T04:22:33;11.00;;;8.60;;
19929;SDS011;10127;47.780;9.606;2023-04-21T04:24:59;10.60;;;8.13;;
19929;SDS011;10127;47.780;9.606;2023-04-21T04:27:25;10.73;;;8.03;;
19929;SDS011;10127;47.780;9.606;2023-04-21T04:29:52;9.87;;;7.60;;
19929;SDS011;10127;47.780;9.606;2023-04-21T04:32:18;11.80;;;8.47;;
19929;SDS011;10127;47.780;9.606;2023-04-21T04:34:43;11.90;;;9.27;;
19929;SDS011;10127;47.780;9.606;2023-04-21T04:37:09;12.80;;;8.60;;
19929;SDS011;10127;47.780;9.606;2023-04-21T04:39:35;12.77;;;9.23;;
19929;SDS011;10127;47.780;9.606;2023-04-21T04:42:01;12.60;;;8.53;;
19929;SDS011;10127;47.780;9.606;2023-04-21T04:44:27;12.07;;;8.60;;
19929;SDS011;10127;47.780;9.606;2023-04-21T04:46:54;18.93;;;11.67;;
19929;SDS011;10127;47.780;9.606;2023-04-21T04:49:20;14.53;;;10.10;;
19929;SDS011;10127;47.780;9.606;2023-04-21T04:51:46;11.70;;;8.37;;
19929;SDS011;10127;47.780;9.606;2023-04-21T04:54:11;14.13;;;9.10;;
19929;SDS011;10127;47.780;9.606;2023-04-21T04:56:37;10.07;;;8.07;;
19929;SDS011;10127;47.780;9.606;2023-04-21T04:59:03;10.40;;;7.77;;
19929;SDS011;10127;47.780;9.606;2023-04-21T05:01:28;12.13;;;7.80;;
19929;SDS011;10127;47.780;9.606;2023-04-21T05:03:55;13.00;;;8.23;;
19929;SDS011;10127;47.780;9.606;2023-04-21T05:06:21;12.73;;;9.10;;
19929;SDS011;10127;47.780;9.606;2023-04-21T05:08:47;10.80;;;9.00;;
19929;SDS011;10127;47.780;9.606;2023-04-21T05:11:12;13.27;;;8.37;;
19929;SDS011;10127;47.780;9.606;2023-04-21T05:13:38;14.67;;;8.40;;
19929;SDS011;10127;47.780;9.606;2023-04-21T05:16:04;11.33;;;8.80;;
19929;SDS011;10127;47.780;9.606;2023-04-21T05:18:30;12.27;;;8.53;;
19929;SDS011;10127;47.780;9.606;2023-04-21T05:20:55;9.40;;;7.70;;
19929;SDS011;10127;47.780;9.606;2023-04-21T05:23:21;11.67;;;8.30;;
19929;SDS011;10127;47.780;9.606;2023-04-21T05:25:47;10.13;;;7.43;;
19929;SDS011;10127;47.780;9.606;2023-04-21T05:28:13;10.23;;;7.93;;
19929;SDS011;10127;47.780;9.606;2023-04-21T05:30:39;11.03;;;8.03;;
19929;SDS011;10127;47.780;9.606;2023-04-21T05:33:05;10.20;;;7.30;;
19929;SDS011;10127;47.780;9.606;2023-04-21T05:35:31;11.73;;;8.40;;
19929;SDS011;10127;47.780;9.606;2023-04-21T05:37:57;11.40;;;7.87;;
19929;SDS011;10127;47.780;9.606;2023-04-21T05:40:23;9.33;;;7.67;;
19929;SDS011;10127;47.780;9.606;2023-04-21T05:42:48;11.10;;;8.37;;
19929;SDS011;10127;47.780;9.606;2023-04-21T05:45:14;11.63;;;7.87;;
19929;SDS011;10127;47.780;9.606;2023-04-21T05:47:40;12.20;;;7.73;;
19929;SDS011;10127;47.780;9.606;2023-04-21T05:50:06;15.43;;;10.20;;
19929;SDS011;10127;47.780;9.606;2023-04-21T05:52:32;9.47;;;7.17;;
19929;SDS011;10127;47.780;9.606;2023-04-21T05:54:58;11.57;;;8.02;;
19929;SDS011;10127;47.780;9.606;2023-04-21T05:57:24;12.20;;;8.40;;
19929;SDS011;10127;47.780;9.606;2023-04-21T05:59:50;14.13;;;10.57;;
19929;SDS011;10127;47.780;9.606;2023-04-21T06:02:16;10.57;;;7.90;;
19929;SDS011;10127;47.780;9.606;2023-04-21T06:04:41;13.43;;;10.07;;
19929;SDS011;10127;47.780;9.606;2023-04-21T06:07:07;12.13;;;9.27;;
19929;SDS011;10127;47.780;9.606;2023-04-21T06:09:34;12.70;;;9.20;;
19929;SDS011;10127;47.780;9.606;2023-04-21T06:12:01;17.73;;;9.63;;
19929;SDS011;10127;47.780;9.606;2023-04-21T06:14:26;12.87;;;8.60;;
19929;SDS011;10127;47.780;9.606;2023-04-21T06:16:52;10.73;;;8.87;;
19929;SDS011;10127;47.780;9.606;2023-04-21T06:19:17;14.03;;;9.77;;
19929;SDS011;10127;47.780;9.606;2023-04-21T06:21:43;10.80;;;8.37;;
19929;SDS011;10127;47.780;9.606;2023-04-21T06:24:09;10.73;;;8.20;;
19929;SDS011;10127;47.780;9.606;2023-04-21T06:26:34;12.23;;;8.10;;
19929;SDS011;10127;47.780;9.606;2023-04-21T06:29:00;10.73;;;7.90;;
19929;SDS011;10127;47.780;9.606;2023-04-21T06:31:25;23.57;;;14.73;;
19929;SDS011;10127;47.780;9.606;2023-04-21T06:33:51;11.77;;;8.13;;
19929;SDS011;10127;47.780;9.606;2023-04-21T06:36:17;13.90;;;10.43;;
19929;SDS011;10127;47.780;9.606;2023-04-21T06:38:42;16.00;;;9.57;;
19929;SDS011;10127;47.780;9.606;2023-04-21T06:41:08;11.87;;;7.63;;
19929;SDS011;10127;47.780;9.606;2023-04-21T06:43:34;11.93;;;7.50;;
19929;SDS011;10127;47.780;9.606;2023-04-21T06:46:00;13.73;;;7.90;;
19929;SDS011;10127;47.780;9.606;2023-04-21T06:48:26;9.57;;;7.57;;
19929;SDS011;10127;47.780;9.606;2023-04-21T06:50:51;26.77;;;9.00;;
19929;SDS011;10127;47.780;9.606;2023-04-21T06:53:17;10.93;;;8.10;;
19929;SDS011;10127;47.780;9.606;2023-04-21T06:55:43;12.17;;;8.07;;
19929;SDS011;10127;47.780;9.606;2023-04-21T06:58:08;9.73;;;7.23;;
19929;SDS011;10127;47.780;9.606;2023-04-21T07:00:35;13.87;;;8.03;;
19929;SDS011;10127;47.780;9.606;2023-04-21T07:03:00;15.03;;;9.47;;
19929;SDS011;10127;47.780;9.606;2023-04-21T07:05:26;12.83;;;7.73;;
19929;SDS011;10127;47.780;9.606;2023-04-21T07:07:52;9.60;;;7.57;;
19929;SDS011;10127;47.780;9.606;2023-04-21T07:10:23;10.70;;;7.90;;
19929;SDS011;10127;47.780;9.606;2023-04-21T07:12:51;12.00;;;8.23;;
19929;SDS011;10127;47.780;9.606;2023-04-21T07:15:23;11.80;;;8.53;;
19929;SDS011;10127;47.780;9.606;2023-04-21T07:17:49;10.57;;;8.17;;
19929;SDS011;10127;47.780;9.606;2023-04-21T07:20:15;13.17;;;7.50;;
19929;SDS011;10127;47.780;9.606;2023-04-21T07:22:42;19.00;;;13.23;;
19929;SDS011;10127;47.780;9.606;2023-04-21T07:25:08;19.07;;;11.23;;
19929;SDS011;10127;47.780;9.606;2023-04-21T07:27:34;15.80;;;8.93;;
19929;SDS011;10127;47.780;9.606;2023-04-21T07:30:01;14.80;;;7.90;;
19929;SDS011;10127;47.780;9.606;2023-04-21T07:32:27;8.73;;;7.07;;
19929;SDS011;10127;47.780;9.606;2023-04-21T07:34:53;8.23;;;6.53;;
19929;SDS011;10127;47.780;9.606;2023-04-21T07:37:19;8.27;;;6.30;;
19929;SDS011;10127;47.780;9.606;2023-04-21T07:39:45;10.13;;;6.35;;
19929;SDS011;10127;47.780;9.606;2023-04-21T07:42:14;8.75;;;6.80;;
19929;SDS011;10127;47.780;9.606;2023-04-21T07:44:40;10.75;;;6.80;;
19929;SDS011;10127;47.780;9.606;2023-04-21T07:47:05;11.25;;;6.82;;
19929;SDS011;10127;47.780;9.606;2023-04-21T07:49:31;10.80;;;7.38;;
19929;SDS011;10127;47.780;9.606;2023-04-21T07:51:56;15.35;;;9.80;;
19929;SDS011;10127;47.780;9.606;2023-04-21T07:54:22;9.48;;;7.63;;
19929;SDS011;10127;47.780;9.606;2023-04-21T07:56:48;16.88;;;7.88;;
19929;SDS011;10127;47.780;9.606;2023-04-21T07:59:13;60.05;;;37.00;;
19929;SDS011;10127;47.780;9.606;2023-04-21T08:01:39;25.35;;;16.10;;
19929;SDS011;10127;47.780;9.606;2023-04-21T08:04:04;31.85;;;14.68;;
19929;SDS011;10127;47.780;9.606;2023-04-21T08:06:30;15.60;;;7.95;;
19929;SDS011;10127;47.780;9.606;2023-04-21T08:08:57;10.45;;;6.38;;
19929;SDS011;10127;47.780;9.606;2023-04-21T08:11:23;10.50;;;6.10;;
19929;SDS011;10127;47.780;9.606;2023-04-21T08:13:48;8.10;;;6.22;;
19929;SDS011;10127;47.780;9.606;2023-04-21T08:16:14;10.07;;;5.65;;
19929;SDS011;10127;47.780;9.606;2023-04-21T08:18:39;6.75;;;5.60;;
19929;SDS011;10127;47.780;9.606;2023-04-21T08:21:05;10.02;;;5.70;;
19929;SDS011;10127;47.780;9.606;2023-04-21T08:23:31;6.47;;;5.00;;
19929;SDS011;10127;47.780;9.606;2023-04-21T08:25:56;6.72;;;5.47;;
19929;SDS011;10127;47.780;9.606;2023-04-21T08:28:22;8.50;;;5.22;;
19929;SDS011;10127;47.780;9.606;2023-04-21T08:30:47;6.40;;;5.10;;
19929;SDS011;10127;47.780;9.606;2023-04-21T08:33:13;7.40;;;5.65;;
19929;SDS011;10127;47.780;9.606;2023-04-21T08:35:39;12.30;;;7.95;;
19929;SDS011;10127;47.780;9.606;2023-04-21T08:38:05;21.35;;;11.88;;
19929;SDS011;10127;47.780;9.606;2023-04-21T08:40:33;35.30;;;22.05;;
19929;SDS011;10127;47.780;9.606;2023-04-21T08:43:00;28.77;;;18.17;;
19929;SDS011;10127;47.780;9.606;2023-04-21T08:45:26;11.75;;;5.32;;
19929;SDS011;10127;47.780;9.606;2023-04-21T08:47:52;6.72;;;5.03;;
19929;SDS011;10127;47.780;9.606;2023-04-21T08:50:20;6.32;;;4.80;;
19929;SDS011;10127;47.780;9.606;2023-04-21T08:52:50;7.60;;;4.60;;
19929;SDS011;10127;47.780;9.606;2023-04-21T08:55:15;9.65;;;4.95;;
19929;SDS011;10127;47.780;9.606;2023-04-21T08:57:41;7.38;;;4.75;;
19929;SDS011;10127;47.780;9.606;2023-04-21T09:00:07;6.00;;;4.85;;
19929;SDS011;10127;47.780;9.606;2023-04-21T09:02:34;10.23;;;6.32;;
19929;SDS011;10127;47.780;9.606;2023-04-21T09:05:23;6.00;;;4.88;;
19929;SDS011;10127;47.780;9.606;2023-04-21T09:08:06;6.60;;;4.25;;
19929;SDS011;10127;47.780;9.606;2023-04-21T09:10:43;7.70;;;4.53;;
19929;SDS011;10127;47.780;9.606;2023-04-21T09:13:14;6.25;;;4.15;;
19929;SDS011;10127;47.780;9.606;2023-04-21T09:15:42;5.05;;;4.50;;
19929;SDS011;10127;47.780;9.606;2023-04-21T09:18:22;4.82;;;4.20;;
19929;SDS011;10127;47.780;9.606;2023-04-21T09:20:50;7.45;;;4.32;;
19929;SDS011;10127;47.780;9.606;2023-04-21T09:26:10;31.45;;;20.15;;
19929;SDS011;10127;47.780;9.606;2023-04-21T09:28:37;4.57;;;3.72;;
19929;SDS011;10127;47.780;9.606;2023-04-21T09:31:05;8.50;;;4.93;;
19929;SDS011;10127;47.780;9.606;2023-04-21T09:33:41;8.10;;;5.18;;
19929;SDS011;10127;47.780;9.606;2023-04-21T09:36:09;5.85;;;4.25;;
19929;SDS011;10127;47.780;9.606;2023-04-21T09:38:46;5.75;;;4.05;;
19929;SDS011;10127;47.780;9.606;2023-04-21T09:41:17;4.20;;;3.17;;
19929;SDS011;10127;47.780;9.606;2023-04-21T09:43:43;4.15;;;3.15;;
19929;SDS011;10127;47.780;9.606;2023-04-21T09:46:09;5.13;;;3.13;;
19929;SDS011;10127;47.780;9.606;2023-04-21T09:48:36;6.40;;;4.75;;
19929;SDS011;10127;47.780;9.606;2023-04-21T09:51:07;8.32;;;4.20;;
19929;SDS011;10127;47.780;9.606;2023-04-21T09:53:33;5.47;;;2.83;;
19929;SDS011;10127;47.780;9.606;2023-04-21T09:56:02;8.13;;;3.10;;
19929;SDS011;10127;47.780;9.606;2023-04-21T09:58:32;4.80;;;2.97;;
19929;SDS011;10127;47.780;9.606;2023-04-21T10:01:01;4.55;;;3.00;;
19929;SDS011;10127;47.780;9.606;2023-04-21T10:03:28;2.80;;;2.50;;
19929;SDS011;10127;47.780;9.606;2023-04-21T10:05:55;6.68;;;3.25;;
19929;SDS011;10127;47.780;9.606;2023-04-21T10:08:21;5.60;;;3.58;;
19929;SDS011;10127;47.780;9.606;2023-04-21T10:10:46;4.40;;;2.85;;
19929;SDS011;10127;47.780;9.606;2023-04-21T10:13:13;6.93;;;4.38;;
19929;SDS011;10127;47.780;9.606;2023-04-21T10:15:42;17.33;;;10.80;;
19929;SDS011;10127;47.780;9.606;2023-04-21T10:20:50;3.38;;;2.72;;
19929;SDS011;10127;47.780;9.606;2023-04-21T10:23:26;3.03;;;2.60;;
19929;SDS011;10127;47.780;9.606;2023-04-21T10:26:02;4.18;;;2.53;;
19929;SDS011;10127;47.780;9.606;2023-04-21T10:33:41;4.03;;;2.20;;
19929;SDS011;10127;47.780;9.606;2023-04-21T10:36:06;7.15;;;2.47;;
19929;SDS011;10127;47.780;9.606;2023-04-21T10:38:39;3.03;;;2.28;;
19929;SDS011;10127;47.780;9.606;2023-04-21T10:41:25;4.85;;;2.10;;
19929;SDS011;10127;47.780;9.606;2023-04-21T10:43:57;3.17;;;2.22;;
19929;SDS011;10127;47.780;9.606;2023-04-21T10:46:43;4.60;;;1.98;;
19929;SDS011;10127;47.780;9.606;2023-04-21T10:49:20;2.45;;;2.03;;
19929;SDS011;10127;47.780;9.606;2023-04-21T10:54:34;3.35;;;2.08;;
19929;SDS011;10127;47.780;9.606;2023-04-21T10:57:10;12.25;;;5.63;;
19929;SDS011;10127;47.780;9.606;2023-04-21T10:59:45;2.17;;;1.98;;
19929;SDS011;10127;47.780;9.606;2023-04-21T11:02:12;4.95;;;2.33;;
19929;SDS011;10127;47.780;9.606;2023-04-21T11:04:39;3.15;;;2.40;;
19929;SDS011;10127;47.780;9.606;2023-04-21T11:07:13;3.30;;;1.88;;
19929;SDS011;10127;47.780;9.606;2023-04-21T11:09:41;3.35;;;2.03;;
19929;SDS011;10127;47.780;9.606;2023-04-21T11:14:34;2.05;;;1.83;;
19929;SDS011;10127;47.780;9.606;2023-04-21T11:17:02;2.28;;;1.70;;
19929;SDS011;10127;47.780;9.606;2023-04-21T11:19:30;1.55;;;1.42;;
19929;SDS011;10127;47.780;9.606;2023-04-21T11:21:56;3.58;;;1.75;;
19929;SDS011;10127;47.780;9.606;2023-04-21T11:24:22;2.03;;;1.60;;
19929;SDS011;10127;47.780;9.606;2023-04-21T11:26:48;2.78;;;1.83;;
19929;SDS011;10127;47.780;9.606;2023-04-21T11:29:14;5.05;;;1.67;;
19929;SDS011;10127;47.780;9.606;2023-04-21T11:31:41;2.13;;;1.50;;
19929;SDS011;10127;47.780;9.606;2023-04-21T11:34:09;2.05;;;1.35;;
19929;SDS011;10127;47.780;9.606;2023-04-21T11:36:39;1.23;;;1.13;;
19929;SDS011;10127;47.780;9.606;2023-04-21T11:39:06;1.15;;;1.05;;
19929;SDS011;10127;47.780;9.606;2023-04-21T11:41:33;2.67;;;1.92;;
19929;SDS011;10127;47.780;9.606;2023-04-21T11:44:00;3.45;;;1.35;;
19929;SDS011;10127;47.780;9.606;2023-04-21T11:46:26;1.25;;;1.10;;
19929;SDS011;10127;47.780;9.606;2023-04-21T11:49:05;12.05;;;7.45;;
19929;SDS011;10127;47.780;9.606;2023-04-21T11:51:35;4.97;;;1.52;;
19929;SDS011;10127;47.780;9.606;2023-04-21T11:54:03;1.70;;;1.10;;
19929;SDS011;10127;47.780;9.606;2023-04-21T11:56:33;2.40;;;1.17;;
19929;SDS011;10127;47.780;9.606;2023-04-21T11:59:04;1.92;;;1.33;;
19929;SDS011;10127;47.780;9.606;2023-04-21T12:01:47;1.77;;;1.30;;
19929;SDS011;10127;47.780;9.606;2023-04-21T12:04:15;2.15;;;1.10;;
19929;SDS011;10127;47.780;9.606;2023-04-21T12:06:45;2.92;;;1.20;;
19929;SDS011;10127;47.780;9.606;2023-04-21T12:09:15;2.45;;;1.23;;
19929;SDS011;10127;47.780;9.606;2023-04-21T12:11:45;3.50;;;1.45;;
19929;SDS011;10127;47.780;9.606;2023-04-21T12:14:18;2.38;;;1.17;;
19929;SDS011;10127;47.780;9.606;2023-04-21T12:16:51;1.52;;;1.20;;
19929;SDS011;10127;47.780;9.606;2023-04-21T12:19:22;5.15;;;1.08;;
19929;SDS011;10127;47.780;9.606;2023-04-21T12:21:53;5.13;;;2.00;;
19929;SDS011;10127;47.780;9.606;2023-04-21T12:24:20;8.70;;;3.65;;
19929;SDS011;10127;47.780;9.606;2023-04-21T12:26:46;2.90;;;1.10;;
19929;SDS011;10127;47.780;9.606;2023-04-21T12:29:11;1.20;;;0.80;;
19929;SDS011;10127;47.780;9.606;2023-04-21T12:31:37;1.95;;;1.10;;
19929;SDS011;10127;47.780;9.606;2023-04-21T12:34:03;2.88;;;1.02;;
19929;SDS011;10127;47.780;9.606;2023-04-21T12:36:29;5.05;;;1.10;;
19929;SDS011;10127;47.780;9.606;2023-04-21T12:38:54;0.77;;;0.70;;
19929;SDS011;10127;47.780;9.606;2023-04-21T12:41:20;4.63;;;0.95;;
19929;SDS011;10127;47.780;9.606;2023-04-21T12:43:46;4.50;;;0.60;;
19929;SDS011;10127;47.780;9.606;2023-04-21T12:46:11;5.43;;;0.95;;
19929;SDS011;10127;47.780;9.606;2023-04-21T12:48:37;1.55;;;0.70;;
19929;SDS011;10127;47.780;9.606;2023-04-21T12:51:02;2.47;;;0.98;;
19929;SDS011;10127;47.780;9.606;2023-04-21T12:53:28;12.80;;;4.82;;
19929;SDS011;10127;47.780;9.606;2023-04-21T12:55:53;5.25;;;1.52;;
19929;SDS011;10127;47.780;9.606;2023-04-21T12:58:19;20.55;;;3.03;;
19929;SDS011;10127;47.780;9.606;2023-04-21T13:00:45;8.68;;;1.42;;
19929;SDS011;10127;47.780;9.606;2023-04-21T13:03:11;6.60;;;1.25;;
19929;SDS011;10127;47.780;9.606;2023-04-21T13:05:36;1.63;;;0.68;;
19929;SDS011;10127;47.780;9.606;2023-04-21T13:08:02;2.53;;;0.73;;
19929;SDS011;10127;47.780;9.606;2023-04-21T13:10:27;3.40;;;0.60;;
19929;SDS011;10127;47.780;9.606;2023-04-21T13:12:53;5.28;;;2.10;;
19929;SDS011;10127;47.780;9.606;2023-04-21T13:15:18;3.10;;;1.33;;
19929;SDS011;10127;47.780;9.606;2023-04-21T13:17:44;3.45;;;0.70;;
19929;SDS011;10127;47.780;9.606;2023-04-21T13:20:10;3.03;;;1.08;;
19929;SDS011;10127;47.780;9.606;2023-04-21T13:22:36;1.58;;;0.70;;
19929;SDS011;10127;47.780;9.606;2023-04-21T13:25:01;3.85;;;0.82;;
19929;SDS011;10127;47.780;9.606;2023-04-21T13:27:28;1.92;;;0.82;;
19929;SDS011;10127;47.780;9.606;2023-04-21T13:29:55;2.75;;;0.60;;
19929;SDS011;10127;47.780;9.606;2023-04-21T13:32:21;1.30;;;0.50;;
19929;SDS011;10127;47.780;9.606;2023-04-21T13:34:47;0.90;;;0.70;;
19929;SDS011;10127;47.780;9.606;2023-04-21T13:37:12;1.48;;;0.45;;
19929;SDS011;10127;47.780;9.606;2023-04-21T13:39:40;1.30;;;0.60;;
19929;SDS011;10127;47.780;9.606;2023-04-21T13:42:06;1.15;;;0.50;;
19929;SDS011;10127;47.780;9.606;2023-04-21T13:44:32;1.05;;;0.50;;
19929;SDS011;10127;47.780;9.606;2023-04-21T13:46:58;1.33;;;0.50;;
19929;SDS011;10127;47.780;9.606;2023-04-21T13:49:23;1.20;;;0.30;;
19929;SDS011;10127;47.780;9.606;2023-04-21T13:51:49;0.30;;;0.30;;
19929;SDS011;10127;47.780;9.606;2023-04-21T13:54:14;0.50;;;0.30;;
19929;SDS011;10127;47.780;9.606;2023-04-21T13:56:40;2.58;;;2.00;;
19929;SDS011;10127;47.780;9.606;2023-04-21T13:59:06;2.38;;;0.95;;
19929;SDS011;10127;47.780;9.606;2023-04-21T14:01:34;18.45;;;9.75;;
19929;SDS011;10127;47.780;9.606;2023-04-21T14:04:00;2.47;;;1.48;;
19929;SDS011;10127;47.780;9.606;2023-04-21T14:06:25;2.03;;;0.90;;
19929;SDS011;10127;47.780;9.606;2023-04-21T14:08:51;1.40;;;0.90;;
19929;SDS011;10127;47.780;9.606;2023-04-21T14:11:17;4.55;;;0.90;;
19929;SDS011;10127;47.780;9.606;2023-04-21T14:13:43;7.32;;;2.92;;
19929;SDS011;10127;47.780;9.606;2023-04-21T14:16:08;2.65;;;1.75;;
19929;SDS011;10127;47.780;9.606;2023-04-21T14:18:34;1.77;;;0.90;;
19929;SDS011;10127;47.780;9.606;2023-04-21T14:21:01;3.45;;;0.90;;
19929;SDS011;10127;47.780;9.606;2023-04-21T14:23:27;3.13;;;1.02;;
19929;SDS011;10127;47.780;9.606;2023-04-21T14:25:52;2.55;;;0.57;;
19929;SDS011;10127;47.780;9.606;2023-04-21T14:28:18;3.55;;;2.85;;
19929;SDS011;10127;47.780;9.606;2023-04-21T14:30:44;11.27;;;4.60;;
19929;SDS011;10127;47.780;9.606;2023-04-21T14:33:09;4.75;;;4.03;;
19929;SDS011;10127;47.780;9.606;2023-04-21T14:35:35;3.40;;;1.02;;
19929;SDS011;10127;47.780;9.606;2023-04-21T14:38:01;3.58;;;2.42;;
19929;SDS011;10127;47.780;9.606;2023-04-21T14:40:27;1.92;;;1.73;;
19929;SDS011;10127;47.780;9.606;2023-04-21T14:42:52;0.70;;;0.60;;
19929;SDS011;10127;47.780;9.606;2023-04-21T14:45:18;4.25;;;0.90;;
19929;SDS011;10127;47.780;9.606;2023-04-21T14:47:43;3.13;;;2.50;;
19929;SDS011;10127;47.780;9.606;2023-04-21T14:50:09;3.40;;;0.43;;
19929;SDS011;10127;47.780;9.606;2023-04-21T14:52:35;0.90;;;0.50;;
19929;SDS011;10127;47.780;9.606;2023-04-21T14:55:00;1.05;;;0.60;;
19929;SDS011;10127;47.780;9.606;2023-04-21T14:57:27;0.80;;;0.40;;
19929;SDS011;10127;47.780;9.606;2023-04-21T14:59:53;1.25;;;0.47;;
19929;SDS011;10127;47.780;9.606;2023-04-21T15:02:19;2.85;;;0.50;;
19929;SDS011;10127;47.780;9.606;2023-04-21T15:04:45;0.70;;;0.40;;
19929;SDS011;10127;47.780;9.606;2023-04-21T15:07:11;3.53;;;1.65;;
19929;SDS011;10127;47.780;9.606;2023-04-21T15:09:37;3.40;;;1.55;;
19929;SDS011;10127;47.780;9.606;2023-04-21T15:12:09;9.18;;;5.85;;
19929;SDS011;10127;47.780;9.606;2023-04-21T15:14:37;3.42;;;2.53;;
19929;SDS011;10127;47.780;9.606;2023-04-21T15:17:03;4.82;;;2.90;;
19929;SDS011;10127;47.780;9.606;2023-04-21T15:19:29;1.83;;;1.00;;
19929;SDS011;10127;47.780;9.606;2023-04-21T15:21:55;4.50;;;1.05;;